sensor_id;sensor_type;location;lat;lon;timestamp;temperature;humidity
37324;DHT22;23205;49.986;18.950;2022-12-24T00:02:52;4.70;99.90
37324;DHT22;23205;49.986;18.950;2022-12-24T00:07:53;4.80;99.90
37324;DHT22;23205;49.986;18.950;2022-12-24T00:12:53;4.60;99.90
37324;DHT22;23205;49.986;18.950;2022-12-24T00:17:54;4.90;99.90
37324;DHT22;23205;49.986;18.950;2022-12-24T00:22:55;4.80;99.90
37324;DHT22;23205;49.986;18.950;2022-12-24T00:27:55;4.90;99.90
37324;DHT22;23205;49.986;18.950;2022-12-24T00:32:56;4.80;99.90
37324;DHT22;23205;49.986;18.950;2022-12-24T00:37:57;4.50;99.90
37324;DHT22;23205;49.986;18.950;2022-12-24T00:42:57;4.50;99.90
37324;DHT22;23205;49.986;18.950;2022-12-24T00:47:58;4.60;99.90
37324;DHT22;23205;49.986;18.950;2022-12-24T00:52:59;4.60;99.90
37324;DHT22;23205;49.986;18.950;2022-12-24T00:57:59;4.70;99.90
37324;DHT22;23205;49.986;18.950;2022-12-24T01:03:00;4.80;99.90
37324;DHT22;23205;49.986;18.950;2022-12-24T01:08:01;5.80;99.90
37324;DHT22;23205;49.986;18.950;2022-12-24T01:13:01;4.70;99.90
37324;DHT22;23205;49.986;18.950;2022-12-24T01:18:02;4.80;99.90
37324;DHT22;23205;49.986;18.950;2022-12-24T01:23:03;4.90;99.90
37324;DHT22;23205;49.986;18.950;2022-12-24T01:28:04;4.90;99.90
37324;DHT22;23205;49.986;18.950;2022-12-24T01:33:04;5.10;99.90
37324;DHT22;23205;49.986;18.950;2022-12-24T01:38:05;5.10;99.90
37324;DHT22;23205;49.986;18.950;2022-12-24T01:43:11;5.20;99.90
37324;DHT22;23205;49.986;18.950;2022-12-24T01:48:27;5.30;99.90
37324;DHT22;23205;49.986;18.950;2022-12-24T01:53:31;5.30;99.90
37324;DHT22;23205;49.986;18.950;2022-12-24T01:58:33;5.20;99.90
37324;DHT22;23205;49.986;18.950;2022-12-24T02:03:35;5.20;99.90
37324;DHT22;23205;49.986;18.950;2022-12-24T02:08:36;5.30;99.90
37324;DHT22;23205;49.986;18.950;2022-12-24T02:13:40;5.40;99.90
37324;DHT22;23205;49.986;18.950;2022-12-24T02:34:08;5.50;99.90
37324;DHT22;23205;49.986;18.950;2022-12-24T02:39:14;5.60;99.90
37324;DHT22;23205;49.986;18.950;2022-12-24T02:44:18;5.50;99.90
37324;DHT22;23205;49.986;18.950;2022-12-24T02:49:19;5.50;99.90
37324;DHT22;23205;49.986;18.950;2022-12-24T02:54:20;5.60;99.90
37324;DHT22;23205;49.986;18.950;2022-12-24T02:59:35;5.70;99.90
37324;DHT22;23205;49.986;18.950;2022-12-24T03:15:00;5.90;99.90
37324;DHT22;23205;49.986;18.950;2022-12-24T03:20:02;5.90;99.90
37324;DHT22;23205;49.986;18.950;2022-12-24T03:25:03;6.10;99.90
37324;DHT22;23205;49.986;18.950;2022-12-24T03:30:07;6.20;99.90
37324;DHT22;23205;49.986;18.950;2022-12-24T03:35:08;6.30;99.90
37324;DHT22;23205;49.986;18.950;2022-12-24T03:40:08;6.40;99.90
37324;DHT22;23205;49.986;18.950;2022-12-24T03:45:09;6.40;99.90
37324;DHT22;23205;49.986;18.950;2022-12-24T03:50:10;6.40;99.90
37324;DHT22;23205;49.986;18.950;2022-12-24T03:55:10;6.50;99.90
37324;DHT22;23205;49.986;18.950;2022-12-24T04:00:11;6.50;99.90
37324;DHT22;23205;49.986;18.950;2022-12-24T04:05:13;6.50;99.90
37324;DHT22;23205;49.986;18.950;2022-12-24T04:10:14;6.80;99.90
37324;DHT22;23205;49.986;18.950;2022-12-24T04:15:15;6.50;99.90
37324;DHT22;23205;49.986;18.950;2022-12-24T04:20:15;6.60;99.90
37324;DHT22;23205;49.986;18.950;2022-12-24T04:25:16;6.50;99.90
37324;DHT22;23205;49.986;18.950;2022-12-24T04:30:16;6.60;99.90
37324;DHT22;23205;49.986;18.950;2022-12-24T04:35:17;6.60;99.90
37324;DHT22;23205;49.986;18.950;2022-12-24T04:40:18;6.60;99.90
37324;DHT22;23205;49.986;18.950;2022-12-24T04:45:18;6.60;99.90
37324;DHT22;23205;49.986;18.950;2022-12-24T04:50:19;6.60;99.90
37324;DHT22;23205;49.986;18.950;2022-12-24T04:55:20;6.60;99.90
37324;DHT22;23205;49.986;18.950;2022-12-24T05:00:20;6.50;99.90
37324;DHT22;23205;49.986;18.950;2022-12-24T05:05:21;6.60;99.90
37324;DHT22;23205;49.986;18.950;2022-12-24T05:10:22;6.60;99.90
37324;DHT22;23205;49.986;18.950;2022-12-24T05:15:22;6.60;99.90
37324;DHT22;23205;49.986;18.950;2022-12-24T05:20:23;6.40;99.90
37324;DHT22;23205;49.986;18.950;2022-12-24T05:25:24;6.60;99.90
37324;DHT22;23205;49.986;18.950;2022-12-24T05:30:44;6.60;99.90
37324;DHT22;23205;49.986;18.950;2022-12-24T05:35:44;6.50;99.90
37324;DHT22;23205;49.986;18.950;2022-12-24T05:40:45;6.50;99.90
37324;DHT22;23205;49.986;18.950;2022-12-24T05:45:46;6.70;99.90
37324;DHT22;23205;49.986;18.950;2022-12-24T05:50:46;6.60;99.90
37324;DHT22;23205;49.986;18.950;2022-12-24T05:55:47;6.50;99.90
37324;DHT22;23205;49.986;18.950;2022-12-24T06:00:48;6.50;99.90
37324;DHT22;23205;49.986;18.950;2022-12-24T06:05:56;6.50;99.90
37324;DHT22;23205;49.986;18.950;2022-12-24T06:10:58;6.50;99.90
37324;DHT22;23205;49.986;18.950;2022-12-24T06:15:59;6.50;99.90
37324;DHT22;23205;49.986;18.950;2022-12-24T06:21:00;6.50;99.90
37324;DHT22;23205;49.986;18.950;2022-12-24T06:26:02;6.60;99.90
37324;DHT22;23205;49.986;18.950;2022-12-24T06:31:04;5.70;99.90
37324;DHT22;23205;49.986;18.950;2022-12-24T06:36:05;6.70;99.90
37324;DHT22;23205;49.986;18.950;2022-12-24T06:41:18;6.70;99.90
37324;DHT22;23205;49.986;18.950;2022-12-24T06:46:19;6.70;99.90
37324;DHT22;23205;49.986;18.950;2022-12-24T06:51:20;6.70;99.90
37324;DHT22;23205;49.986;18.950;2022-12-24T06:56:21;6.70;99.90
37324;DHT22;23205;49.986;18.950;2022-12-24T07:01:21;6.70;99.90
37324;DHT22;23205;49.986;18.950;2022-12-24T07:06:24;6.60;99.90
37324;DHT22;23205;49.986;18.950;2022-12-24T07:11:25;6.70;99.90
37324;DHT22;23205;49.986;18.950;2022-12-24T07:16:26;6.70;99.90
37324;DHT22;23205;49.986;18.950;2022-12-24T07:21:27;6.80;99.90
37324;DHT22;23205;49.986;18.950;2022-12-24T07:26:27;6.80;99.90
37324;DHT22;23205;49.986;18.950;2022-12-24T07:31:29;6.80;99.90
37324;DHT22;23205;49.986;18.950;2022-12-24T07:36:33;6.80;99.90
37324;DHT22;23205;49.986;18.950;2022-12-24T07:41:34;6.90;99.90
37324;DHT22;23205;49.986;18.950;2022-12-24T07:46:34;4.90;99.90
37324;DHT22;23205;49.986;18.950;2022-12-24T07:51:35;6.80;99.90
37324;DHT22;23205;49.986;18.950;2022-12-24T07:56:36;6.00;99.90
37324;DHT22;23205;49.986;18.950;2022-12-24T08:01:36;6.90;99.90
37324;DHT22;23205;49.986;18.950;2022-12-24T08:06:37;6.90;99.90
37324;DHT22;23205;49.986;18.950;2022-12-24T08:11:38;7.00;99.90
37324;DHT22;23205;49.986;18.950;2022-12-24T08:16:39;7.00;99.90
37324;DHT22;23205;49.986;18.950;2022-12-24T08:21:39;7.00;99.90
37324;DHT22;23205;49.986;18.950;2022-12-24T08:26:40;7.10;99.90
37324;DHT22;23205;49.986;18.950;2022-12-24T08:31:41;7.00;99.90
37324;DHT22;23205;49.986;18.950;2022-12-24T08:36:42;7.20;99.90
37324;DHT22;23205;49.986;18.950;2022-12-24T08:41:42;7.10;99.90
37324;DHT22;23205;49.986;18.950;2022-12-24T08:46:43;7.20;99.90
37324;DHT22;23205;49.986;18.950;2022-12-24T08:51:44;7.40;99.90
37324;DHT22;23205;49.986;18.950;2022-12-24T08:56:44;7.40;99.90
37324;DHT22;23205;49.986;18.950;2022-12-24T09:01:45;7.60;99.90
37324;DHT22;23205;49.986;18.950;2022-12-24T09:06:45;7.60;99.90
37324;DHT22;23205;49.986;18.950;2022-12-24T09:11:46;7.70;99.90
37324;DHT22;23205;49.986;18.950;2022-12-24T09:16:48;7.70;99.90
37324;DHT22;23205;49.986;18.950;2022-12-24T09:21:49;7.50;99.90
37324;DHT22;23205;49.986;18.950;2022-12-24T09:26:49;7.70;99.90
37324;DHT22;23205;49.986;18.950;2022-12-24T09:31:50;7.70;99.90
37324;DHT22;23205;49.986;18.950;2022-12-24T09:36:51;7.70;99.90
37324;DHT22;23205;49.986;18.950;2022-12-24T09:47:07;7.80;99.90
37324;DHT22;23205;49.986;18.950;2022-12-24T09:52:11;7.90;99.90
37324;DHT22;23205;49.986;18.950;2022-12-24T09:57:14;8.00;99.90
37324;DHT22;23205;49.986;18.950;2022-12-24T10:02:16;8.10;99.90
37324;DHT22;23205;49.986;18.950;2022-12-24T10:17:45;8.00;99.90
37324;DHT22;23205;49.986;18.950;2022-12-24T10:28:14;7.70;99.90
37324;DHT22;23205;49.986;18.950;2022-12-24T10:33:19;7.70;99.90
37324;DHT22;23205;49.986;18.950;2022-12-24T10:38:20;7.70;99.90
37324;DHT22;23205;49.986;18.950;2022-12-24T10:43:22;7.70;99.90
37324;DHT22;23205;49.986;18.950;2022-12-24T10:58:30;7.80;99.90
37324;DHT22;23205;49.986;18.950;2022-12-24T11:03:32;7.90;99.90
37324;DHT22;23205;49.986;18.950;2022-12-24T11:08:34;8.00;99.90
37324;DHT22;23205;49.986;18.950;2022-12-24T11:13:35;8.00;99.90
37324;DHT22;23205;49.986;18.950;2022-12-24T11:18:37;8.00;99.90
37324;DHT22;23205;49.986;18.950;2022-12-24T11:23:47;8.10;99.90
37324;DHT22;23205;49.986;18.950;2022-12-24T11:39:24;8.30;99.90
37324;DHT22;23205;49.986;18.950;2022-12-24T11:44:25;8.20;99.90
37324;DHT22;23205;49.986;18.950;2022-12-24T11:49:28;8.20;99.90
37324;DHT22;23205;49.986;18.950;2022-12-24T11:54:30;8.30;99.90
37324;DHT22;23205;49.986;18.950;2022-12-24T11:59:39;8.20;99.90
37324;DHT22;23205;49.986;18.950;2022-12-24T12:04:41;8.20;99.90
37324;DHT22;23205;49.986;18.950;2022-12-24T12:09:44;8.30;99.90
37324;DHT22;23205;49.986;18.950;2022-12-24T12:19:56;8.40;99.90
37324;DHT22;23205;49.986;18.950;2022-12-24T12:24:57;8.40;99.90
37324;DHT22;23205;49.986;18.950;2022-12-24T12:30:00;8.70;99.90
37324;DHT22;23205;49.986;18.950;2022-12-24T12:35:22;8.80;99.90
37324;DHT22;23205;49.986;18.950;2022-12-24T12:41:10;8.80;99.90
37324;DHT22;23205;49.986;18.950;2022-12-24T12:45:57;8.80;99.90
37324;DHT22;23205;49.986;18.950;2022-12-24T12:51:08;8.80;99.90
37324;DHT22;23205;49.986;18.950;2022-12-24T12:56:20;8.80;99.90
37324;DHT22;23205;49.986;18.950;2022-12-24T13:11:50;8.80;99.90
37324;DHT22;23205;49.986;18.950;2022-12-24T13:16:56;9.10;99.90
37324;DHT22;23205;49.986;18.950;2022-12-24T13:22:00;8.90;99.90
37324;DHT22;23205;49.986;18.950;2022-12-24T13:27:24;8.80;99.90
37324;DHT22;23205;49.986;18.950;2022-12-24T13:42:47;8.90;99.90
37324;DHT22;23205;49.986;18.950;2022-12-24T13:47:48;8.80;99.90
37324;DHT22;23205;49.986;18.950;2022-12-24T13:52:50;8.80;99.90
37324;DHT22;23205;49.986;18.950;2022-12-24T13:57:52;8.80;99.90
37324;DHT22;23205;49.986;18.950;2022-12-24T14:02:55;8.90;99.90
37324;DHT22;23205;49.986;18.950;2022-12-24T14:07:56;9.10;99.90
37324;DHT22;23205;49.986;18.950;2022-12-24T14:12:58;9.10;99.90
37324;DHT22;23205;49.986;18.950;2022-12-24T14:17:58;9.20;99.90
37324;DHT22;23205;49.986;18.950;2022-12-24T14:22:59;9.20;99.90
37324;DHT22;23205;49.986;18.950;2022-12-24T14:28:04;9.30;99.90
37324;DHT22;23205;49.986;18.950;2022-12-24T14:33:25;9.30;99.90
37324;DHT22;23205;49.986;18.950;2022-12-24T14:38:26;9.30;99.90
37324;DHT22;23205;49.986;18.950;2022-12-24T14:44:02;9.30;99.90
37324;DHT22;23205;49.986;18.950;2022-12-24T14:54:52;9.30;99.90
37324;DHT22;23205;49.986;18.950;2022-12-24T15:04:41;9.20;99.90
37324;DHT22;23205;49.986;18.950;2022-12-24T15:09:46;9.30;99.90
37324;DHT22;23205;49.986;18.950;2022-12-24T15:14:47;9.10;99.90
37324;DHT22;23205;49.986;18.950;2022-12-24T15:19:48;9.10;99.90
37324;DHT22;23205;49.986;18.950;2022-12-24T15:24:52;9.10;99.90
37324;DHT22;23205;49.986;18.950;2022-12-24T15:29:55;9.10;99.90
37324;DHT22;23205;49.986;18.950;2022-12-24T15:34:56;8.90;99.90
37324;DHT22;23205;49.986;18.950;2022-12-24T15:40:19;8.90;99.90
37324;DHT22;23205;49.986;18.950;2022-12-24T15:45:40;8.80;99.90
37324;DHT22;23205;49.986;18.950;2022-12-24T15:50:42;8.70;99.90
37324;DHT22;23205;49.986;18.950;2022-12-24T15:55:44;8.70;99.90
37324;DHT22;23205;49.986;18.950;2022-12-24T16:00:58;8.60;99.90
37324;DHT22;23205;49.986;18.950;2022-12-24T16:16:16;8.50;99.90
37324;DHT22;23205;49.986;18.950;2022-12-24T16:21:19;8.40;99.90
37324;DHT22;23205;49.986;18.950;2022-12-24T16:26:22;8.30;99.90
37324;DHT22;23205;49.986;18.950;2022-12-24T16:31:30;8.30;99.90
37324;DHT22;23205;49.986;18.950;2022-12-24T16:36:32;8.20;99.90
37324;DHT22;23205;49.986;18.950;2022-12-24T16:41:32;8.10;99.90
37324;DHT22;23205;49.986;18.950;2022-12-24T16:46:53;8.10;99.90
37324;DHT22;23205;49.986;18.950;2022-12-24T16:51:54;8.10;99.90
37324;DHT22;23205;49.986;18.950;2022-12-24T16:56:55;8.00;99.90
37324;DHT22;23205;49.986;18.950;2022-12-24T17:01:55;8.00;99.90
37324;DHT22;23205;49.986;18.950;2022-12-24T17:06:56;7.90;99.90
37324;DHT22;23205;49.986;18.950;2022-12-24T17:11:57;8.00;99.90
37324;DHT22;23205;49.986;18.950;2022-12-24T17:16:57;7.80;99.90
37324;DHT22;23205;49.986;18.950;2022-12-24T17:21:59;7.80;99.90
37324;DHT22;23205;49.986;18.950;2022-12-24T17:26:59;7.80;99.90
37324;DHT22;23205;49.986;18.950;2022-12-24T17:32:00;7.70;99.90
37324;DHT22;23205;49.986;18.950;2022-12-24T17:37:00;7.80;99.90
37324;DHT22;23205;49.986;18.950;2022-12-24T17:42:01;7.80;99.90
37324;DHT22;23205;49.986;18.950;2022-12-24T17:47:02;7.70;99.90
37324;DHT22;23205;49.986;18.950;2022-12-24T17:52:04;7.70;99.90
37324;DHT22;23205;49.986;18.950;2022-12-24T17:57:05;7.80;99.90
37324;DHT22;23205;49.986;18.950;2022-12-24T18:02:06;7.80;99.90
37324;DHT22;23205;49.986;18.950;2022-12-24T18:07:06;7.60;99.90
37324;DHT22;23205;49.986;18.950;2022-12-24T18:12:07;7.70;99.90
37324;DHT22;23205;49.986;18.950;2022-12-24T18:17:08;7.70;99.90
37324;DHT22;23205;49.986;18.950;2022-12-24T18:22:08;7.60;99.90
37324;DHT22;23205;49.986;18.950;2022-12-24T18:27:09;7.40;99.90
37324;DHT22;23205;49.986;18.950;2022-12-24T18:32:10;7.20;99.90
37324;DHT22;23205;49.986;18.950;2022-12-24T18:37:12;7.20;99.90
37324;DHT22;23205;49.986;18.950;2022-12-24T18:42:12;7.10;99.90
37324;DHT22;23205;49.986;18.950;2022-12-24T18:47:14;7.10;99.90
37324;DHT22;23205;49.986;18.950;2022-12-24T18:52:14;7.20;99.90
37324;DHT22;23205;49.986;18.950;2022-12-24T18:57:18;7.20;99.90
37324;DHT22;23205;49.986;18.950;2022-12-24T19:02:18;7.20;99.90
37324;DHT22;23205;49.986;18.950;2022-12-24T19:07:19;7.20;99.90
37324;DHT22;23205;49.986;18.950;2022-12-24T19:12:20;7.10;99.90
37324;DHT22;23205;49.986;18.950;2022-12-24T19:17:20;7.10;99.90
37324;DHT22;23205;49.986;18.950;2022-12-24T19:22:21;7.20;99.90
37324;DHT22;23205;49.986;18.950;2022-12-24T19:27:22;7.10;99.90
37324;DHT22;23205;49.986;18.950;2022-12-24T19:32:22;7.20;99.90
37324;DHT22;23205;49.986;18.950;2022-12-24T19:37:23;7.00;99.90
37324;DHT22;23205;49.986;18.950;2022-12-24T19:42:24;6.90;99.90
37324;DHT22;23205;49.986;18.950;2022-12-24T19:47:24;6.80;99.90
37324;DHT22;23205;49.986;18.950;2022-12-24T19:52:25;6.70;99.90
37324;DHT22;23205;49.986;18.950;2022-12-24T19:57:26;6.50;99.90
37324;DHT22;23205;49.986;18.950;2022-12-24T20:02:27;6.70;99.90
37324;DHT22;23205;49.986;18.950;2022-12-24T20:07:27;6.40;99.90
37324;DHT22;23205;49.986;18.950;2022-12-24T20:12:28;6.30;99.90
37324;DHT22;23205;49.986;18.950;2022-12-24T20:17:29;6.30;99.90
37324;DHT22;23205;49.986;18.950;2022-12-24T20:22:29;6.10;99.90
37324;DHT22;23205;49.986;18.950;2022-12-24T20:27:30;6.00;99.90
37324;DHT22;23205;49.986;18.950;2022-12-24T20:32:31;6.10;99.90
37324;DHT22;23205;49.986;18.950;2022-12-24T20:37:31;6.00;99.90
37324;DHT22;23205;49.986;18.950;2022-12-24T20:42:32;6.20;99.90
37324;DHT22;23205;49.986;18.950;2022-12-24T20:47:33;6.30;99.90
37324;DHT22;23205;49.986;18.950;2022-12-24T20:52:34;6.40;99.90
37324;DHT22;23205;49.986;18.950;2022-12-24T20:57:34;6.30;99.90
37324;DHT22;23205;49.986;18.950;2022-12-24T21:02:35;6.50;99.90
37324;DHT22;23205;49.986;18.950;2022-12-24T21:07:36;6.60;99.90
37324;DHT22;23205;49.986;18.950;2022-12-24T21:12:40;6.70;99.90
37324;DHT22;23205;49.986;18.950;2022-12-24T21:17:57;6.70;99.90
37324;DHT22;23205;49.986;18.950;2022-12-24T21:22:58;6.70;99.90
37324;DHT22;23205;49.986;18.950;2022-12-24T21:27:59;6.80;99.90
37324;DHT22;23205;49.986;18.950;2022-12-24T21:33:00;6.90;99.90
37324;DHT22;23205;49.986;18.950;2022-12-24T21:38:01;7.00;99.90
37324;DHT22;23205;49.986;18.950;2022-12-24T21:43:02;7.00;99.90
37324;DHT22;23205;49.986;18.950;2022-12-24T21:48:03;7.10;99.90
37324;DHT22;23205;49.986;18.950;2022-12-24T21:53:23;7.00;99.90
37324;DHT22;23205;49.986;18.950;2022-12-24T21:58:43;7.00;99.90
37324;DHT22;23205;49.986;18.950;2022-12-24T22:03:46;7.00;99.90
37324;DHT22;23205;49.986;18.950;2022-12-24T22:08:47;7.10;99.90
37324;DHT22;23205;49.986;18.950;2022-12-24T22:14:06;7.10;99.90
37324;DHT22;23205;49.986;18.950;2022-12-24T22:19:07;7.10;99.90
37324;DHT22;23205;49.986;18.950;2022-12-24T22:24:08;7.10;99.90
37324;DHT22;23205;49.986;18.950;2022-12-24T22:29:08;7.00;99.90
37324;DHT22;23205;49.986;18.950;2022-12-24T22:34:09;6.80;99.90
37324;DHT22;23205;49.986;18.950;2022-12-24T22:39:11;6.60;99.90
37324;DHT22;23205;49.986;18.950;2022-12-24T22:44:12;6.60;99.90
37324;DHT22;23205;49.986;18.950;2022-12-24T22:49:12;6.50;99.90
37324;DHT22;23205;49.986;18.950;2022-12-24T22:54:13;6.40;99.90
37324;DHT22;23205;49.986;18.950;2022-12-24T22:59:14;6.30;99.90
37324;DHT22;23205;49.986;18.950;2022-12-24T23:04:14;6.20;99.90
37324;DHT22;23205;49.986;18.950;2022-12-24T23:09:15;6.30;99.90
37324;DHT22;23205;49.986;18.950;2022-12-24T23:14:17;6.30;99.90
37324;DHT22;23205;49.986;18.950;2022-12-24T23:19:37;6.30;99.90
37324;DHT22;23205;49.986;18.950;2022-12-24T23:24:38;6.30;99.90
37324;DHT22;23205;49.986;18.950;2022-12-24T23:29:38;6.20;99.90
37324;DHT22;23205;49.986;18.950;2022-12-24T23:34:39;6.40;99.90
37324;DHT22;23205;49.986;18.950;2022-12-24T23:39:39;6.50;99.90
37324;DHT22;23205;49.986;18.950;2022-12-24T23:44:40;6.60;99.90
37324;DHT22;23205;49.986;18.950;2022-12-24T23:49:41;6.50;99.90
37324;DHT22;23205;49.986;18.950;2022-12-24T23:54:41;6.60;99.90
37324;DHT22;23205;49.986;18.950;2022-12-24T23:59:42;6.60;99.90
